sensor_id;sensor_type;location;lat;lon;timestamp;pressure;altitude;pressure_sealevel;temperature;humidity
56944;BME280;42848;42.524;12.052;2023-08-31T00:02:10;96321.44;;;18.23;100.00
56944;BME280;42848;42.524;12.052;2023-08-31T00:04:36;96315.59;;;17.87;100.00
56944;BME280;42848;42.524;12.052;2023-08-31T00:07:02;96321.97;;;17.95;100.00
56944;BME280;42848;42.524;12.052;2023-08-31T00:09:27;96321.50;;;17.55;100.00
56944;BME280;42848;42.524;12.052;2023-08-31T00:11:55;96314.47;;;17.91;100.00
56944;BME280;42848;42.524;12.052;2023-08-31T00:14:25;96317.66;;;17.97;100.00
56944;BME280;42848;42.524;12.052;2023-08-31T00:16:52;96324.59;;;18.28;100.00
56944;BME280;42848;42.524;12.052;2023-08-31T00:19:17;96320.72;;;18.33;100.00
56944;BME280;42848;42.524;12.052;2023-08-31T00:21:44;96321.00;;;17.76;100.00
56944;BME280;42848;42.524;12.052;2023-08-31T00:24:10;96317.75;;;18.04;100.00
56944;BME280;42848;42.524;12.052;2023-08-31T00:26:37;96315.91;;;17.78;100.00
56944;BME280;42848;42.524;12.052;2023-08-31T00:29:09;96324.06;;;17.71;100.00
56944;BME280;42848;42.524;12.052;2023-08-31T00:31:36;96318.50;;;17.68;100.00
56944;BME280;42848;42.524;12.052;2023-08-31T00:34:03;96324.84;;;17.72;100.00
56944;BME280;42848;42.524;12.052;2023-08-31T00:36:33;96326.56;;;17.83;100.00
56944;BME280;42848;42.524;12.052;2023-08-31T00:39:07;96327.44;;;17.61;100.00
56944;BME280;42848;42.524;12.052;2023-08-31T00:41:36;96319.53;;;17.89;100.00
56944;BME280;42848;42.524;12.052;2023-08-31T00:44:03;96320.88;;;18.06;100.00
56944;BME280;42848;42.524;12.052;2023-08-31T00:46:33;96319.69;;;18.04;100.00
56944;BME280;42848;42.524;12.052;2023-08-31T00:49:00;96316.31;;;18.21;100.00
56944;BME280;42848;42.524;12.052;2023-08-31T00:51:25;96325.22;;;18.07;100.00
56944;BME280;42848;42.524;12.052;2023-08-31T00:53:52;96325.88;;;17.94;100.00
56944;BME280;42848;42.524;12.052;2023-08-31T00:56:20;96318.13;;;18.03;100.00
56944;BME280;42848;42.524;12.052;2023-08-31T00:58:46;96316.81;;;17.56;100.00
56944;BME280;42848;42.524;12.052;2023-08-31T01:04:25;96317.16;;;17.54;100.00
56944;BME280;42848;42.524;12.052;2023-08-31T01:07:01;96324.06;;;17.71;100.00
56944;BME280;42848;42.524;12.052;2023-08-31T01:09:56;96313.66;;;17.87;100.00
56944;BME280;42848;42.524;12.052;2023-08-31T01:12:34;96329.56;;;17.71;100.00
56944;BME280;42848;42.524;12.052;2023-08-31T01:15:05;96332.41;;;17.82;100.00
56944;BME280;42848;42.524;12.052;2023-08-31T01:17:47;96334.63;;;18.06;100.00
56944;BME280;42848;42.524;12.052;2023-08-31T01:20:34;96341.88;;;17.84;100.00
56944;BME280;42848;42.524;12.052;2023-08-31T01:23:11;96345.50;;;17.96;100.00
56944;BME280;42848;42.524;12.052;2023-08-31T01:25:39;96336.69;;;17.79;100.00
56944;BME280;42848;42.524;12.052;2023-08-31T01:28:10;96346.00;;;18.05;100.00
56944;BME280;42848;42.524;12.052;2023-08-31T01:30:35;96340.09;;;18.03;100.00
56944;BME280;42848;42.524;12.052;2023-08-31T01:33:01;96339.16;;;17.91;100.00
56944;BME280;42848;42.524;12.052;2023-08-31T01:35:32;96341.41;;;17.79;100.00
56944;BME280;42848;42.524;12.052;2023-08-31T01:38:02;96346.59;;;17.87;100.00
56944;BME280;42848;42.524;12.052;2023-08-31T01:40:39;96344.53;;;17.77;100.00
56944;BME280;42848;42.524;12.052;2023-08-31T01:43:07;96346.59;;;17.87;100.00
56944;BME280;42848;42.524;12.052;2023-08-31T01:45:33;96343.09;;;17.90;100.00
56944;BME280;42848;42.524;12.052;2023-08-31T01:48:01;96341.50;;;17.89;100.00
56944;BME280;42848;42.524;12.052;2023-08-31T01:50:27;96343.03;;;17.83;100.00
56944;BME280;42848;42.524;12.052;2023-08-31T01:52:52;96343.94;;;17.95;100.00
56944;BME280;42848;42.524;12.052;2023-08-31T01:55:24;96340.53;;;17.38;100.00
56944;BME280;42848;42.524;12.052;2023-08-31T01:57:50;96353.78;;;17.66;100.00
56944;BME280;42848;42.524;12.052;2023-08-31T02:00:17;96349.03;;;17.62;100.00
56944;BME280;42848;42.524;12.052;2023-08-31T02:02:43;96346.72;;;17.34;100.00
56944;BME280;42848;42.524;12.052;2023-08-31T02:05:09;96349.06;;;17.02;100.00
56944;BME280;42848;42.524;12.052;2023-08-31T02:07:35;96342.25;;;17.53;100.00
56944;BME280;42848;42.524;12.052;2023-08-31T02:10:01;96347.03;;;17.59;100.00
56944;BME280;42848;42.524;12.052;2023-08-31T02:12:27;96343.53;;;17.62;100.00
56944;BME280;42848;42.524;12.052;2023-08-31T02:14:53;96343.09;;;17.27;100.00
56944;BME280;42848;42.524;12.052;2023-08-31T02:17:19;96345.09;;;17.60;100.00
56944;BME280;42848;42.524;12.052;2023-08-31T02:19:45;96352.81;;;17.51;100.00
56944;BME280;42848;42.524;12.052;2023-08-31T02:22:10;96353.25;;;17.86;100.00
56944;BME280;42848;42.524;12.052;2023-08-31T02:24:36;96349.19;;;17.73;100.00
56944;BME280;42848;42.524;12.052;2023-08-31T02:27:01;96348.44;;;17.76;100.00
56944;BME280;42848;42.524;12.052;2023-08-31T02:29:27;96345.31;;;17.78;100.00
56944;BME280;42848;42.524;12.052;2023-08-31T02:31:53;96344.44;;;17.70;100.00
56944;BME280;42848;42.524;12.052;2023-08-31T02:34:19;96356.28;;;17.74;100.00
56944;BME280;42848;42.524;12.052;2023-08-31T02:36:44;96355.84;;;17.72;100.00
56944;BME280;42848;42.524;12.052;2023-08-31T02:39:10;96354.38;;;17.48;100.00
56944;BME280;42848;42.524;12.052;2023-08-31T02:41:36;96355.69;;;17.61;100.00
56944;BME280;42848;42.524;12.052;2023-08-31T02:44:02;96364.91;;;17.76;100.00
56944;BME280;42848;42.524;12.052;2023-08-31T02:46:27;96367.94;;;17.68;100.00
56944;BME280;42848;42.524;12.052;2023-08-31T02:48:53;96363.13;;;17.61;100.00
56944;BME280;42848;42.524;12.052;2023-08-31T02:51:19;96367.88;;;17.64;100.00
56944;BME280;42848;42.524;12.052;2023-08-31T02:53:44;96366.69;;;17.31;100.00
56944;BME280;42848;42.524;12.052;2023-08-31T02:56:10;96356.72;;;17.50;100.00
56944;BME280;42848;42.524;12.052;2023-08-31T02:58:35;96367.28;;;17.18;100.00
56944;BME280;42848;42.524;12.052;2023-08-31T03:01:10;96361.84;;;17.21;100.00
56944;BME280;42848;42.524;12.052;2023-08-31T03:03:38;96363.50;;;16.73;100.00
56944;BME280;42848;42.524;12.052;2023-08-31T03:06:09;96361.47;;;16.93;100.00
56944;BME280;42848;42.524;12.052;2023-08-31T03:08:35;96364.66;;;16.98;100.00
56944;BME280;42848;42.524;12.052;2023-08-31T03:11:03;96363.44;;;17.22;100.00
56944;BME280;42848;42.524;12.052;2023-08-31T03:13:31;96370.94;;;16.99;100.00
56944;BME280;42848;42.524;12.052;2023-08-31T03:15:57;96370.63;;;17.34;100.00
56944;BME280;42848;42.524;12.052;2023-08-31T03:18:24;96366.59;;;17.24;100.00
56944;BME280;42848;42.524;12.052;2023-08-31T03:20:49;96377.38;;;17.10;100.00
56944;BME280;42848;42.524;12.052;2023-08-31T03:23:15;96374.84;;;16.98;100.00
56944;BME280;42848;42.524;12.052;2023-08-31T03:25:41;96374.94;;;17.05;100.00
56944;BME280;42848;42.524;12.052;2023-08-31T03:28:07;96371.44;;;17.08;100.00
56944;BME280;42848;42.524;12.052;2023-08-31T03:30:33;96379.91;;;16.69;100.00
56944;BME280;42848;42.524;12.052;2023-08-31T03:32:59;96375.56;;;16.68;100.00
56944;BME280;42848;42.524;12.052;2023-08-31T03:35:24;96375.13;;;16.66;100.00
56944;BME280;42848;42.524;12.052;2023-08-31T03:37:53;96379.16;;;16.72;100.00
56944;BME280;42848;42.524;12.052;2023-08-31T03:40:19;96374.56;;;17.37;100.00
56944;BME280;42848;42.524;12.052;2023-08-31T03:42:45;96378.81;;;16.74;100.00
56944;BME280;42848;42.524;12.052;2023-08-31T03:45:11;96383.16;;;17.05;100.00
56944;BME280;42848;42.524;12.052;2023-08-31T03:47:37;96387.31;;;16.92;100.00
56944;BME280;42848;42.524;12.052;2023-08-31T03:50:04;96384.63;;;17.25;100.00
56944;BME280;42848;42.524;12.052;2023-08-31T03:52:29;96377.03;;;17.15;100.00
56944;BME280;42848;42.524;12.052;2023-08-31T03:54:55;96375.94;;;17.20;100.00
56944;BME280;42848;42.524;12.052;2023-08-31T03:57:21;96386.34;;;17.37;100.00
56944;BME280;42848;42.524;12.052;2023-08-31T03:59:46;96381.28;;;16.60;100.00
56944;BME280;42848;42.524;12.052;2023-08-31T04:02:12;96384.88;;;16.41;100.00
56944;BME280;42848;42.524;12.052;2023-08-31T04:04:37;96389.00;;;16.54;100.00
56944;BME280;42848;42.524;12.052;2023-08-31T04:07:03;96390.31;;;16.37;100.00
56944;BME280;42848;42.524;12.052;2023-08-31T04:09:29;96394.13;;;16.33;100.00
56944;BME280;42848;42.524;12.052;2023-08-31T04:11:55;96397.28;;;16.81;100.00
56944;BME280;42848;42.524;12.052;2023-08-31T04:14:21;96398.16;;;16.39;100.00
56944;BME280;42848;42.524;12.052;2023-08-31T04:16:47;96402.66;;;16.28;100.00
56944;BME280;42848;42.524;12.052;2023-08-31T04:19:16;96404.13;;;16.21;100.00
56944;BME280;42848;42.524;12.052;2023-08-31T04:21:43;96403.97;;;16.14;100.00
56944;BME280;42848;42.524;12.052;2023-08-31T04:24:09;96402.84;;;16.38;100.00
56944;BME280;42848;42.524;12.052;2023-08-31T04:26:35;96406.72;;;16.60;100.00
56944;BME280;42848;42.524;12.052;2023-08-31T04:29:02;96415.28;;;16.55;100.00
56944;BME280;42848;42.524;12.052;2023-08-31T04:31:29;96419.84;;;16.70;100.00
56944;BME280;42848;42.524;12.052;2023-08-31T04:33:55;96427.88;;;16.83;100.00
56944;BME280;42848;42.524;12.052;2023-08-31T04:36:21;96430.69;;;16.86;100.00
56944;BME280;42848;42.524;12.052;2023-08-31T04:38:48;96438.47;;;16.61;100.00
56944;BME280;42848;42.524;12.052;2023-08-31T04:41:15;96443.03;;;16.54;100.00
56944;BME280;42848;42.524;12.052;2023-08-31T04:43:40;96456.97;;;16.68;100.00
56944;BME280;42848;42.524;12.052;2023-08-31T04:46:06;96449.59;;;16.49;100.00
56944;BME280;42848;42.524;12.052;2023-08-31T04:48:32;96456.13;;;16.41;100.00
56944;BME280;42848;42.524;12.052;2023-08-31T04:50:58;96452.56;;;16.63;100.00
56944;BME280;42848;42.524;12.052;2023-08-31T04:53:24;96462.53;;;16.71;100.00
56944;BME280;42848;42.524;12.052;2023-08-31T04:55:50;96453.97;;;16.54;100.00
56944;BME280;42848;42.524;12.052;2023-08-31T04:58:15;96449.50;;;16.65;100.00
56944;BME280;42848;42.524;12.052;2023-08-31T05:00:41;96460.59;;;16.95;100.00
56944;BME280;42848;42.524;12.052;2023-08-31T05:03:07;96461.00;;;16.51;100.00
56944;BME280;42848;42.524;12.052;2023-08-31T05:05:32;96461.59;;;16.83;100.00
56944;BME280;42848;42.524;12.052;2023-08-31T05:07:58;96470.38;;;16.50;100.00
56944;BME280;42848;42.524;12.052;2023-08-31T05:10:24;96473.72;;;16.40;100.00
56944;BME280;42848;42.524;12.052;2023-08-31T05:12:50;96466.22;;;16.37;100.00
56944;BME280;42848;42.524;12.052;2023-08-31T05:15:15;96478.41;;;16.62;100.00
56944;BME280;42848;42.524;12.052;2023-08-31T05:17:41;96481.00;;;16.97;100.00
56944;BME280;42848;42.524;12.052;2023-08-31T05:20:07;96485.00;;;17.03;100.00
56944;BME280;42848;42.524;12.052;2023-08-31T05:22:35;96499.88;;;16.80;100.00
56944;BME280;42848;42.524;12.052;2023-08-31T05:25:01;96500.56;;;16.96;100.00
56944;BME280;42848;42.524;12.052;2023-08-31T05:27:27;96496.03;;;17.07;100.00
56944;BME280;42848;42.524;12.052;2023-08-31T05:29:53;96499.16;;;16.83;100.00
56944;BME280;42848;42.524;12.052;2023-08-31T05:32:18;96496.09;;;16.65;100.00
56944;BME280;42848;42.524;12.052;2023-08-31T05:34:44;96504.53;;;16.75;100.00
56944;BME280;42848;42.524;12.052;2023-08-31T05:37:09;96515.84;;;16.97;100.00
56944;BME280;42848;42.524;12.052;2023-08-31T05:39:35;96504.53;;;16.75;100.00
56944;BME280;42848;42.524;12.052;2023-08-31T05:42:00;96510.28;;;17.16;100.00
56944;BME280;42848;42.524;12.052;2023-08-31T05:44:26;96508.78;;;16.96;100.00
56944;BME280;42848;42.524;12.052;2023-08-31T05:46:52;96512.44;;;16.81;100.00
56944;BME280;42848;42.524;12.052;2023-08-31T05:49:17;96514.25;;;16.96;100.00
56944;BME280;42848;42.524;12.052;2023-08-31T05:51:43;96516.63;;;17.20;100.00
56944;BME280;42848;42.524;12.052;2023-08-31T05:54:08;96516.41;;;16.83;100.00
56944;BME280;42848;42.524;12.052;2023-08-31T05:56:38;96519.78;;;16.99;100.00
56944;BME280;42848;42.524;12.052;2023-08-31T05:59:08;96532.31;;;16.97;100.00
56944;BME280;42848;42.524;12.052;2023-08-31T06:01:35;96525.66;;;17.21;100.00
56944;BME280;42848;42.524;12.052;2023-08-31T06:04:04;96535.22;;;17.30;100.00
56944;BME280;42848;42.524;12.052;2023-08-31T06:06:31;96536.47;;;17.10;100.00
56944;BME280;42848;42.524;12.052;2023-08-31T06:08:58;96543.31;;;17.00;100.00
56944;BME280;42848;42.524;12.052;2023-08-31T06:11:23;96540.66;;;17.04;100.00
56944;BME280;42848;42.524;12.052;2023-08-31T06:13:49;96543.31;;;17.00;100.00
56944;BME280;42848;42.524;12.052;2023-08-31T06:16:14;96541.06;;;17.06;100.00
56944;BME280;42848;42.524;12.052;2023-08-31T06:18:40;96533.88;;;17.21;100.00
56944;BME280;42848;42.524;12.052;2023-08-31T06:21:05;96540.16;;;17.21;100.00
56944;BME280;42848;42.524;12.052;2023-08-31T06:23:31;96538.50;;;17.40;100.00
56944;BME280;42848;42.524;12.052;2023-08-31T06:25:57;96542.03;;;17.17;100.00
56944;BME280;42848;42.524;12.052;2023-08-31T06:28:22;96551.34;;;17.35;100.00
56944;BME280;42848;42.524;12.052;2023-08-31T06:30:48;96559.22;;;17.37;100.00
56944;BME280;42848;42.524;12.052;2023-08-31T06:33:14;96558.00;;;17.34;100.00
56944;BME280;42848;42.524;12.052;2023-08-31T06:35:40;96555.91;;;17.51;100.00
56944;BME280;42848;42.524;12.052;2023-08-31T06:38:06;96562.47;;;17.69;100.00
56944;BME280;42848;42.524;12.052;2023-08-31T06:40:32;96567.44;;;17.86;100.00
56944;BME280;42848;42.524;12.052;2023-08-31T06:42:58;96579.97;;;17.84;100.00
56944;BME280;42848;42.524;12.052;2023-08-31T06:45:24;96570.09;;;17.79;100.00
56944;BME280;42848;42.524;12.052;2023-08-31T06:47:50;96574.75;;;17.52;100.00
56944;BME280;42848;42.524;12.052;2023-08-31T06:50:16;96568.59;;;17.59;100.00
56944;BME280;42848;42.524;12.052;2023-08-31T06:52:41;96571.63;;;17.54;100.00
56944;BME280;42848;42.524;12.052;2023-08-31T06:55:07;96572.91;;;17.60;100.00
56944;BME280;42848;42.524;12.052;2023-08-31T06:57:33;96571.13;;;17.71;100.00
56944;BME280;42848;42.524;12.052;2023-08-31T07:00:00;96573.47;;;17.96;100.00
56944;BME280;42848;42.524;12.052;2023-08-31T07:02:26;96569.53;;;17.97;100.00
56944;BME280;42848;42.524;12.052;2023-08-31T07:04:52;96568.66;;;18.19;100.00
56944;BME280;42848;42.524;12.052;2023-08-31T07:07:18;96572.94;;;17.86;100.00
56944;BME280;42848;42.524;12.052;2023-08-31T07:09:46;96570.84;;;18.06;100.00
56944;BME280;42848;42.524;12.052;2023-08-31T07:12:12;96578.94;;;17.96;100.00
56944;BME280;42848;42.524;12.052;2023-08-31T07:14:38;96574.91;;;17.86;100.00
56944;BME280;42848;42.524;12.052;2023-08-31T07:17:04;96578.38;;;17.83;100.00
56944;BME280;42848;42.524;12.052;2023-08-31T07:19:29;96588.25;;;17.87;100.00
56944;BME280;42848;42.524;12.052;2023-08-31T07:21:55;96591.22;;;18.02;100.00
56944;BME280;42848;42.524;12.052;2023-08-31T07:24:22;96594.38;;;18.04;100.00
56944;BME280;42848;42.524;12.052;2023-08-31T07:26:47;96591.25;;;18.35;100.00
56944;BME280;42848;42.524;12.052;2023-08-31T07:29:14;96602.47;;;18.23;100.00
56944;BME280;42848;42.524;12.052;2023-08-31T07:31:39;96604.19;;;18.35;100.00
56944;BME280;42848;42.524;12.052;2023-08-31T07:34:05;96597.88;;;18.31;100.00
56944;BME280;42848;42.524;12.052;2023-08-31T07:36:30;96609.66;;;18.31;100.00
56944;BME280;42848;42.524;12.052;2023-08-31T07:38:56;96598.69;;;18.35;100.00
56944;BME280;42848;42.524;12.052;2023-08-31T07:41:23;96615.38;;;18.49;100.00
56944;BME280;42848;42.524;12.052;2023-08-31T07:43:48;96618.41;;;18.40;100.00
56944;BME280;42848;42.524;12.052;2023-08-31T07:46:17;96630.44;;;18.29;100.00
56944;BME280;42848;42.524;12.052;2023-08-31T07:48:43;96628.38;;;18.22;100.00
56944;BME280;42848;42.524;12.052;2023-08-31T07:51:09;96628.66;;;18.43;100.00
56944;BME280;42848;42.524;12.052;2023-08-31T07:53:34;96634.00;;;18.33;100.00
56944;BME280;42848;42.524;12.052;2023-08-31T07:56:00;96631.75;;;18.38;100.00
56944;BME280;42848;42.524;12.052;2023-08-31T07:58:25;96639.09;;;18.61;100.00
56944;BME280;42848;42.524;12.052;2023-08-31T08:00:55;96645.72;;;18.56;100.00
56944;BME280;42848;42.524;12.052;2023-08-31T08:03:24;96642.91;;;18.53;100.00
56944;BME280;42848;42.524;12.052;2023-08-31T08:05:50;96637.38;;;18.49;100.00
56944;BME280;42848;42.524;12.052;2023-08-31T08:08:16;96646.13;;;18.58;100.00
56944;BME280;42848;42.524;12.052;2023-08-31T08:10:41;96650.22;;;18.68;100.00
56944;BME280;42848;42.524;12.052;2023-08-31T08:13:09;96644.56;;;18.91;100.00
56944;BME280;42848;42.524;12.052;2023-08-31T08:15:34;96653.19;;;18.89;100.00
56944;BME280;42848;42.524;12.052;2023-08-31T08:18:00;96654.06;;;18.93;100.00
56944;BME280;42848;42.524;12.052;2023-08-31T08:20:27;96655.69;;;19.01;100.00
56944;BME280;42848;42.524;12.052;2023-08-31T08:22:54;96657.63;;;18.97;100.00
56944;BME280;42848;42.524;12.052;2023-08-31T08:25:21;96666.38;;;19.07;100.00
56944;BME280;42848;42.524;12.052;2023-08-31T08:27:47;96662.31;;;18.93;100.00
56944;BME280;42848;42.524;12.052;2023-08-31T08:30:14;96668.84;;;19.19;100.00
56944;BME280;42848;42.524;12.052;2023-08-31T08:32:41;96678.34;;;19.21;100.00
56944;BME280;42848;42.524;12.052;2023-08-31T08:35:08;96679.06;;;19.18;100.00
56944;BME280;42848;42.524;12.052;2023-08-31T08:37:34;96678.69;;;19.20;100.00
56944;BME280;42848;42.524;12.052;2023-08-31T08:40:00;96686.38;;;19.03;100.00
56944;BME280;42848;42.524;12.052;2023-08-31T08:42:26;96687.63;;;19.10;100.00
56944;BME280;42848;42.524;12.052;2023-08-31T08:44:56;96678.94;;;19.04;100.00
56944;BME280;42848;42.524;12.052;2023-08-31T08:47:22;96697.59;;;19.21;100.00
56944;BME280;42848;42.524;12.052;2023-08-31T08:49:48;96700.34;;;19.21;100.00
56944;BME280;42848;42.524;12.052;2023-08-31T08:52:15;96687.63;;;19.10;100.00
56944;BME280;42848;42.524;12.052;2023-08-31T08:54:41;96699.19;;;19.26;100.00
56944;BME280;42848;42.524;12.052;2023-08-31T08:57:06;96702.06;;;19.37;100.00
56944;BME280;42848;42.524;12.052;2023-08-31T08:59:32;96698.31;;;19.55;100.00
56944;BME280;42848;42.524;12.052;2023-08-31T09:01:58;96701.47;;;19.54;100.00
56944;BME280;42848;42.524;12.052;2023-08-31T09:04:23;96706.94;;;19.50;100.00
56944;BME280;42848;42.524;12.052;2023-08-31T09:06:52;96702.91;;;19.41;100.00
56944;BME280;42848;42.524;12.052;2023-08-31T09:09:17;96710.22;;;19.63;100.00
56944;BME280;42848;42.524;12.052;2023-08-31T09:11:45;96706.56;;;19.55;100.00
56944;BME280;42848;42.524;12.052;2023-08-31T09:14:18;96713.56;;;19.83;100.00
56944;BME280;42848;42.524;12.052;2023-08-31T09:16:45;96715.72;;;19.59;100.00
56944;BME280;42848;42.524;12.052;2023-08-31T09:19:25;96709.44;;;19.63;100.00
56944;BME280;42848;42.524;12.052;2023-08-31T09:21:56;96710.38;;;19.81;100.00
56944;BME280;42848;42.524;12.052;2023-08-31T09:24:22;96714.31;;;19.80;100.00
56944;BME280;42848;42.524;12.052;2023-08-31T09:26:58;96722.25;;;19.85;100.00
56944;BME280;42848;42.524;12.052;2023-08-31T09:29:24;96718.31;;;19.86;100.00
56944;BME280;42848;42.524;12.052;2023-08-31T09:31:50;96719.97;;;19.94;100.00
56944;BME280;42848;42.524;12.052;2023-08-31T09:34:17;96723.47;;;19.91;100.00
56944;BME280;42848;42.524;12.052;2023-08-31T09:36:43;96723.78;;;19.82;100.00
56944;BME280;42848;42.524;12.052;2023-08-31T09:39:10;96723.94;;;20.00;100.00
56944;BME280;42848;42.524;12.052;2023-08-31T09:41:55;96725.97;;;20.07;100.00
56944;BME280;42848;42.524;12.052;2023-08-31T09:44:22;96726.03;;;20.17;100.00
56944;BME280;42848;42.524;12.052;2023-08-31T09:46:48;96726.88;;;20.22;100.00
56944;BME280;42848;42.524;12.052;2023-08-31T09:49:16;96728.19;;;20.42;100.00
56944;BME280;42848;42.524;12.052;2023-08-31T09:51:44;96731.84;;;20.53;100.00
56944;BME280;42848;42.524;12.052;2023-08-31T09:54:16;96732.25;;;20.55;100.00
56944;BME280;42848;42.524;12.052;2023-08-31T09:56:44;96740.16;;;20.64;100.00
56944;BME280;42848;42.524;12.052;2023-08-31T09:59:11;96737.56;;;20.85;100.00
56944;BME280;42848;42.524;12.052;2023-08-31T10:01:37;96728.88;;;20.87;100.00
56944;BME280;42848;42.524;12.052;2023-08-31T10:04:03;96734.91;;;21.17;100.00
56944;BME280;42848;42.524;12.052;2023-08-31T10:06:32;96738.78;;;20.95;100.00
56944;BME280;42848;42.524;12.052;2023-08-31T10:08:58;96741.19;;;21.07;100.00
56944;BME280;42848;42.524;12.052;2023-08-31T10:11:25;96741.97;;;21.04;100.00
56944;BME280;42848;42.524;12.052;2023-08-31T10:13:52;96740.34;;;20.96;100.00
56944;BME280;42848;42.524;12.052;2023-08-31T10:16:19;96746.81;;;21.28;100.00
56944;BME280;42848;42.524;12.052;2023-08-31T10:18:45;96740.88;;;21.23;100.00
56944;BME280;42848;42.524;12.052;2023-08-31T10:21:11;96740.53;;;21.32;100.00
56944;BME280;42848;42.524;12.052;2023-08-31T10:23:44;96742.06;;;21.25;100.00
56944;BME280;42848;42.524;12.052;2023-08-31T10:26:10;96730.69;;;21.34;100.00
56944;BME280;42848;42.524;12.052;2023-08-31T10:28:40;96732.28;;;21.46;100.00
56944;BME280;42848;42.524;12.052;2023-08-31T10:31:15;96731.81;;;21.29;100.00
56944;BME280;42848;42.524;12.052;2023-08-31T10:36:15;96729.13;;;21.40;100.00
56944;BME280;42848;42.524;12.052;2023-08-31T10:38:44;96728.69;;;21.31;100.00
56944;BME280;42848;42.524;12.052;2023-08-31T10:43:50;96736.19;;;21.38;100.00
56944;BME280;42848;42.524;12.052;2023-08-31T10:49:12;96727.50;;;21.39;100.00
56944;BME280;42848;42.524;12.052;2023-08-31T10:51:48;96733.09;;;21.57;100.00
56944;BME280;42848;42.524;12.052;2023-08-31T10:54:24;96731.56;;;21.81;100.00
56944;BME280;42848;42.524;12.052;2023-08-31T10:59:17;96732.75;;;21.83;100.00
56944;BME280;42848;42.524;12.052;2023-08-31T11:01:58;96726.09;;;22.17;100.00
56944;BME280;42848;42.524;12.052;2023-08-31T11:04:27;96716.97;;;22.12;100.00
56944;BME280;42848;42.524;12.052;2023-08-31T11:07:12;96721.31;;;22.46;100.00
56944;BME280;42848;42.524;12.052;2023-08-31T11:09:39;96724.50;;;22.26;100.00
56944;BME280;42848;42.524;12.052;2023-08-31T11:12:05;96721.72;;;22.19;100.00
56944;BME280;42848;42.524;12.052;2023-08-31T11:14:30;96722.50;;;22.45;100.00
56944;BME280;42848;42.524;12.052;2023-08-31T11:16:56;96724.88;;;22.50;100.00
56944;BME280;42848;42.524;12.052;2023-08-31T11:19:22;96708.56;;;22.94;100.00
56944;BME280;42848;42.524;12.052;2023-08-31T11:21:48;96722.31;;;23.23;100.00
56944;BME280;42848;42.524;12.052;2023-08-31T11:24:14;96717.66;;;22.95;100.00
56944;BME280;42848;42.524;12.052;2023-08-31T11:26:41;96720.81;;;22.97;100.00
56944;BME280;42848;42.524;12.052;2023-08-31T11:29:07;96721.19;;;23.06;100.00
56944;BME280;42848;42.524;12.052;2023-08-31T11:31:38;96720.69;;;23.22;100.00
56944;BME280;42848;42.524;12.052;2023-08-31T11:34:06;96708.97;;;22.89;100.00
56944;BME280;42848;42.524;12.052;2023-08-31T11:36:33;96709.00;;;22.79;100.00
56944;BME280;42848;42.524;12.052;2023-08-31T11:38:58;96717.28;;;22.89;100.00
56944;BME280;42848;42.524;12.052;2023-08-31T11:41:30;96713.72;;;22.96;100.00
56944;BME280;42848;42.524;12.052;2023-08-31T11:43:56;96709.69;;;23.15;100.00
56944;BME280;42848;42.524;12.052;2023-08-31T11:46:22;96706.56;;;22.95;100.00
56944;BME280;42848;42.524;12.052;2023-08-31T11:48:48;96712.06;;;23.09;100.00
56944;BME280;42848;42.524;12.052;2023-08-31T11:51:13;96709.53;;;23.43;100.00
56944;BME280;42848;42.524;12.052;2023-08-31T11:53:39;96707.09;;;23.60;100.00
56944;BME280;42848;42.524;12.052;2023-08-31T11:56:05;96712.34;;;23.36;92.91
56944;BME280;42848;42.524;12.052;2023-08-31T11:58:30;96712.75;;;23.31;96.51
56944;BME280;42848;42.524;12.052;2023-08-31T12:00:57;96704.16;;;23.08;97.17
56944;BME280;42848;42.524;12.052;2023-08-31T12:03:24;96702.03;;;23.37;100.00
56944;BME280;42848;42.524;12.052;2023-08-31T12:05:52;96697.31;;;23.34;98.96
56944;BME280;42848;42.524;12.052;2023-08-31T12:08:26;96702.00;;;23.40;96.67
56944;BME280;42848;42.524;12.052;2023-08-31T12:10:53;96708.41;;;23.30;95.32
56944;BME280;42848;42.524;12.052;2023-08-31T12:13:25;96704.75;;;23.47;94.48
56944;BME280;42848;42.524;12.052;2023-08-31T12:15:55;96708.00;;;23.35;90.70
56944;BME280;42848;42.524;12.052;2023-08-31T12:18:21;96700.56;;;23.18;93.34
56944;BME280;42848;42.524;12.052;2023-08-31T12:20:49;96702.28;;;23.67;94.13
56944;BME280;42848;42.524;12.052;2023-08-31T12:23:17;96698.78;;;23.52;89.01
56944;BME280;42848;42.524;12.052;2023-08-31T12:25:50;96688.91;;;23.48;92.14
56944;BME280;42848;42.524;12.052;2023-08-31T12:28:20;96694.41;;;23.62;93.73
56944;BME280;42848;42.524;12.052;2023-08-31T12:30:52;96697.50;;;23.71;95.02
56944;BME280;42848;42.524;12.052;2023-08-31T12:33:19;96706.94;;;23.81;92.60
56944;BME280;42848;42.524;12.052;2023-08-31T12:35:45;96704.38;;;23.45;85.30
56944;BME280;42848;42.524;12.052;2023-08-31T12:38:12;96699.19;;;23.47;85.37
56944;BME280;42848;42.524;12.052;2023-08-31T12:40:38;96696.75;;;23.64;85.31
56944;BME280;42848;42.524;12.052;2023-08-31T12:43:05;96702.09;;;23.92;84.81
56944;BME280;42848;42.524;12.052;2023-08-31T12:45:31;96702.16;;;23.85;84.18
56944;BME280;42848;42.524;12.052;2023-08-31T12:47:57;96698.91;;;23.97;86.08
56944;BME280;42848;42.524;12.052;2023-08-31T12:50:23;96707.75;;;23.78;82.74
56944;BME280;42848;42.524;12.052;2023-08-31T12:52:49;96709.91;;;24.04;81.08
56944;BME280;42848;42.524;12.052;2023-08-31T12:55:15;96704.31;;;24.15;79.80